sensor_id;sensor_type;location;lat;lon;timestamp;pressure;altitude;pressure_sealevel;temperature
20736;BMP180;10528;52.124;5.196;2023-07-29T00:01:37;100658.00;;;24.80
20736;BMP180;10528;52.124;5.196;2023-07-29T00:04:07;100648.00;;;24.80
20736;BMP180;10528;52.124;5.196;2023-07-29T00:06:36;100652.00;;;24.80
20736;BMP180;10528;52.124;5.196;2023-07-29T00:09:03;100642.00;;;24.80
20736;BMP180;10528;52.124;5.196;2023-07-29T00:11:30;100628.00;;;24.80
20736;BMP180;10528;52.124;5.196;2023-07-29T00:14:01;100630.00;;;24.70
20736;BMP180;10528;52.124;5.196;2023-07-29T00:16:28;100618.00;;;24.70
20736;BMP180;10528;52.124;5.196;2023-07-29T00:18:55;100633.00;;;24.70
20736;BMP180;10528;52.124;5.196;2023-07-29T00:21:22;100627.00;;;24.70
20736;BMP180;10528;52.124;5.196;2023-07-29T00:23:49;100622.00;;;24.70
20736;BMP180;10528;52.124;5.196;2023-07-29T00:26:16;100617.00;;;24.70
20736;BMP180;10528;52.124;5.196;2023-07-29T00:28:43;100607.00;;;24.70
20736;BMP180;10528;52.124;5.196;2023-07-29T00:31:10;100614.00;;;24.70
20736;BMP180;10528;52.124;5.196;2023-07-29T00:33:37;100619.00;;;24.70
20736;BMP180;10528;52.124;5.196;2023-07-29T00:36:04;100635.00;;;24.70
20736;BMP180;10528;52.124;5.196;2023-07-29T00:38:31;100636.00;;;24.70
20736;BMP180;10528;52.124;5.196;2023-07-29T00:41:00;100627.00;;;24.70
20736;BMP180;10528;52.124;5.196;2023-07-29T00:43:27;100624.00;;;24.70
20736;BMP180;10528;52.124;5.196;2023-07-29T00:45:54;100621.00;;;24.70
20736;BMP180;10528;52.124;5.196;2023-07-29T00:48:25;100616.00;;;24.70
20736;BMP180;10528;52.124;5.196;2023-07-29T00:50:53;100604.00;;;24.70
20736;BMP180;10528;52.124;5.196;2023-07-29T00:53:20;100610.00;;;24.70
20736;BMP180;10528;52.124;5.196;2023-07-29T00:55:49;100602.00;;;24.70
20736;BMP180;10528;52.124;5.196;2023-07-29T00:58:16;100606.00;;;24.70
20736;BMP180;10528;52.124;5.196;2023-07-29T01:00:43;100600.00;;;24.70
20736;BMP180;10528;52.124;5.196;2023-07-29T01:03:10;100604.00;;;24.70
20736;BMP180;10528;52.124;5.196;2023-07-29T01:08:59;100605.00;;;24.70
20736;BMP180;10528;52.124;5.196;2023-07-29T01:11:58;100597.00;;;24.70
20736;BMP180;10528;52.124;5.196;2023-07-29T01:15:03;100604.00;;;24.70
20736;BMP180;10528;52.124;5.196;2023-07-29T01:18:35;100597.00;;;24.70
20736;BMP180;10528;52.124;5.196;2023-07-29T01:21:09;100607.00;;;24.70
20736;BMP180;10528;52.124;5.196;2023-07-29T01:23:37;100603.00;;;24.70
20736;BMP180;10528;52.124;5.196;2023-07-29T01:26:05;100604.00;;;24.70
20736;BMP180;10528;52.124;5.196;2023-07-29T01:28:33;100597.00;;;24.70
20736;BMP180;10528;52.124;5.196;2023-07-29T01:31:13;100599.00;;;24.70
20736;BMP180;10528;52.124;5.196;2023-07-29T01:33:55;100596.00;;;24.70
20736;BMP180;10528;52.124;5.196;2023-07-29T01:36:28;100594.00;;;24.70
20736;BMP180;10528;52.124;5.196;2023-07-29T01:38:57;100595.00;;;24.70
20736;BMP180;10528;52.124;5.196;2023-07-29T01:41:25;100589.00;;;24.70
20736;BMP180;10528;52.124;5.196;2023-07-29T01:43:54;100594.00;;;24.70
20736;BMP180;10528;52.124;5.196;2023-07-29T01:46:22;100580.00;;;24.70
20736;BMP180;10528;52.124;5.196;2023-07-29T01:48:49;100580.00;;;24.70
20736;BMP180;10528;52.124;5.196;2023-07-29T01:51:16;100581.00;;;24.70
20736;BMP180;10528;52.124;5.196;2023-07-29T01:53:43;100588.00;;;24.70
20736;BMP180;10528;52.124;5.196;2023-07-29T01:56:10;100586.00;;;24.70
20736;BMP180;10528;52.124;5.196;2023-07-29T01:58:41;100589.00;;;24.70
20736;BMP180;10528;52.124;5.196;2023-07-29T02:01:08;100583.00;;;24.70
20736;BMP180;10528;52.124;5.196;2023-07-29T02:03:35;100586.00;;;24.70
20736;BMP180;10528;52.124;5.196;2023-07-29T02:06:02;100570.00;;;24.70
20736;BMP180;10528;52.124;5.196;2023-07-29T02:08:29;100569.00;;;24.70
20736;BMP180;10528;52.124;5.196;2023-07-29T02:10:56;100567.00;;;24.70
20736;BMP180;10528;52.124;5.196;2023-07-29T02:13:23;100566.00;;;24.70
20736;BMP180;10528;52.124;5.196;2023-07-29T02:15:50;100569.00;;;24.70
20736;BMP180;10528;52.124;5.196;2023-07-29T02:18:17;100569.00;;;24.70
20736;BMP180;10528;52.124;5.196;2023-07-29T02:20:45;100566.00;;;24.70
20736;BMP180;10528;52.124;5.196;2023-07-29T02:23:16;100571.00;;;24.60
20736;BMP180;10528;52.124;5.196;2023-07-29T02:25:46;100562.00;;;24.60
20736;BMP180;10528;52.124;5.196;2023-07-29T02:28:13;100557.00;;;24.60
20736;BMP180;10528;52.124;5.196;2023-07-29T02:30:41;100572.00;;;24.60
20736;BMP180;10528;52.124;5.196;2023-07-29T02:33:11;100569.00;;;24.60
20736;BMP180;10528;52.124;5.196;2023-07-29T02:35:38;100556.00;;;24.60
20736;BMP180;10528;52.124;5.196;2023-07-29T02:38:05;100561.00;;;24.60
20736;BMP180;10528;52.124;5.196;2023-07-29T02:40:32;100559.00;;;24.60
20736;BMP180;10528;52.124;5.196;2023-07-29T02:42:59;100564.00;;;24.40
20736;BMP180;10528;52.124;5.196;2023-07-29T02:45:26;100552.00;;;24.50
20736;BMP180;10528;52.124;5.196;2023-07-29T02:47:53;100558.00;;;24.50
20736;BMP180;10528;52.124;5.196;2023-07-29T02:50:20;100557.00;;;24.60
20736;BMP180;10528;52.124;5.196;2023-07-29T02:52:50;100560.00;;;24.50
20736;BMP180;10528;52.124;5.196;2023-07-29T02:55:17;100553.00;;;24.50
20736;BMP180;10528;52.124;5.196;2023-07-29T02:57:44;100559.00;;;24.50
20736;BMP180;10528;52.124;5.196;2023-07-29T03:00:12;100553.00;;;24.50
20736;BMP180;10528;52.124;5.196;2023-07-29T03:02:39;100549.00;;;24.50
20736;BMP180;10528;52.124;5.196;2023-07-29T03:05:07;100548.00;;;24.50
20736;BMP180;10528;52.124;5.196;2023-07-29T03:07:34;100545.00;;;24.50
20736;BMP180;10528;52.124;5.196;2023-07-29T03:10:01;100531.00;;;24.50
20736;BMP180;10528;52.124;5.196;2023-07-29T03:12:29;100541.00;;;24.50
20736;BMP180;10528;52.124;5.196;2023-07-29T03:14:55;100534.00;;;24.40
20736;BMP180;10528;52.124;5.196;2023-07-29T03:17:22;100539.00;;;24.40
20736;BMP180;10528;52.124;5.196;2023-07-29T03:19:50;100543.00;;;24.40
20736;BMP180;10528;52.124;5.196;2023-07-29T03:22:17;100534.00;;;24.40
20736;BMP180;10528;52.124;5.196;2023-07-29T03:24:44;100547.00;;;24.40
20736;BMP180;10528;52.124;5.196;2023-07-29T03:27:10;100547.00;;;24.40
20736;BMP180;10528;52.124;5.196;2023-07-29T03:29:37;100540.00;;;24.40
20736;BMP180;10528;52.124;5.196;2023-07-29T03:32:05;100538.00;;;24.40
20736;BMP180;10528;52.124;5.196;2023-07-29T03:34:32;100533.00;;;24.40
20736;BMP180;10528;52.124;5.196;2023-07-29T03:37:01;100534.00;;;24.40
20736;BMP180;10528;52.124;5.196;2023-07-29T03:39:28;100541.00;;;24.30
20736;BMP180;10528;52.124;5.196;2023-07-29T03:41:54;100544.00;;;24.30
20736;BMP180;10528;52.124;5.196;2023-07-29T03:44:21;100532.00;;;24.30
20736;BMP180;10528;52.124;5.196;2023-07-29T03:46:48;100541.00;;;24.30
20736;BMP180;10528;52.124;5.196;2023-07-29T03:49:15;100552.00;;;24.30
20736;BMP180;10528;52.124;5.196;2023-07-29T03:51:42;100552.00;;;24.30
20736;BMP180;10528;52.124;5.196;2023-07-29T03:54:09;100549.00;;;24.30
20736;BMP180;10528;52.124;5.196;2023-07-29T03:56:36;100547.00;;;24.30
20736;BMP180;10528;52.124;5.196;2023-07-29T03:59:05;100553.00;;;24.30
20736;BMP180;10528;52.124;5.196;2023-07-29T04:01:33;100553.00;;;24.30
20736;BMP180;10528;52.124;5.196;2023-07-29T04:04:00;100561.00;;;24.30
20736;BMP180;10528;52.124;5.196;2023-07-29T04:06:27;100554.00;;;24.30
20736;BMP180;10528;52.124;5.196;2023-07-29T04:08:55;100554.00;;;24.30
20736;BMP180;10528;52.124;5.196;2023-07-29T04:11:23;100555.00;;;24.30
20736;BMP180;10528;52.124;5.196;2023-07-29T04:13:50;100546.00;;;24.20
20736;BMP180;10528;52.124;5.196;2023-07-29T04:16:17;100541.00;;;24.20
20736;BMP180;10528;52.124;5.196;2023-07-29T04:18:45;100537.00;;;24.20
20736;BMP180;10528;52.124;5.196;2023-07-29T04:21:12;100546.00;;;24.20
20736;BMP180;10528;52.124;5.196;2023-07-29T04:23:39;100550.00;;;24.20
20736;BMP180;10528;52.124;5.196;2023-07-29T04:26:07;100554.00;;;24.20
20736;BMP180;10528;52.124;5.196;2023-07-29T04:28:34;100547.00;;;24.20
20736;BMP180;10528;52.124;5.196;2023-07-29T04:31:00;100545.00;;;24.20
20736;BMP180;10528;52.124;5.196;2023-07-29T04:33:30;100546.00;;;24.10
20736;BMP180;10528;52.124;5.196;2023-07-29T04:36:00;100553.00;;;24.20
20736;BMP180;10528;52.124;5.196;2023-07-29T04:38:32;100540.00;;;24.10
20736;BMP180;10528;52.124;5.196;2023-07-29T04:41:01;100541.00;;;24.10
20736;BMP180;10528;52.124;5.196;2023-07-29T04:43:31;100544.00;;;24.10
20736;BMP180;10528;52.124;5.196;2023-07-29T04:45:59;100540.00;;;24.10
20736;BMP180;10528;52.124;5.196;2023-07-29T04:48:26;100535.00;;;24.10
20736;BMP180;10528;52.124;5.196;2023-07-29T04:50:53;100542.00;;;24.20
20736;BMP180;10528;52.124;5.196;2023-07-29T04:53:21;100546.00;;;24.10
20736;BMP180;10528;52.124;5.196;2023-07-29T04:55:47;100547.00;;;24.10
20736;BMP180;10528;52.124;5.196;2023-07-29T04:58:15;100551.00;;;24.10
20736;BMP180;10528;52.124;5.196;2023-07-29T05:00:43;100552.00;;;24.10
20736;BMP180;10528;52.124;5.196;2023-07-29T05:03:10;100558.00;;;24.10
20736;BMP180;10528;52.124;5.196;2023-07-29T05:05:37;100554.00;;;24.20
20736;BMP180;10528;52.124;5.196;2023-07-29T05:08:04;100565.00;;;24.20
20736;BMP180;10528;52.124;5.196;2023-07-29T05:10:31;100569.00;;;24.20
20736;BMP180;10528;52.124;5.196;2023-07-29T05:12:58;100574.00;;;24.20
20736;BMP180;10528;52.124;5.196;2023-07-29T05:15:25;100565.00;;;24.20
20736;BMP180;10528;52.124;5.196;2023-07-29T05:17:52;100570.00;;;24.30
20736;BMP180;10528;52.124;5.196;2023-07-29T05:20:19;100571.00;;;24.30
20736;BMP180;10528;52.124;5.196;2023-07-29T05:22:46;100558.00;;;24.30
20736;BMP180;10528;52.124;5.196;2023-07-29T05:25:13;100559.00;;;24.30
20736;BMP180;10528;52.124;5.196;2023-07-29T05:27:40;100574.00;;;24.30
20736;BMP180;10528;52.124;5.196;2023-07-29T05:30:08;100566.00;;;24.30
20736;BMP180;10528;52.124;5.196;2023-07-29T05:32:35;100572.00;;;24.30
20736;BMP180;10528;52.124;5.196;2023-07-29T05:35:03;100564.00;;;24.40
20736;BMP180;10528;52.124;5.196;2023-07-29T05:37:31;100575.00;;;24.40
20736;BMP180;10528;52.124;5.196;2023-07-29T05:39:58;100574.00;;;24.40
20736;BMP180;10528;52.124;5.196;2023-07-29T05:42:25;100572.00;;;24.40
20736;BMP180;10528;52.124;5.196;2023-07-29T05:44:52;100562.00;;;24.40
20736;BMP180;10528;52.124;5.196;2023-07-29T05:47:19;100565.00;;;24.40
20736;BMP180;10528;52.124;5.196;2023-07-29T05:49:46;100568.00;;;24.50
20736;BMP180;10528;52.124;5.196;2023-07-29T05:52:14;100569.00;;;24.60
20736;BMP180;10528;52.124;5.196;2023-07-29T05:54:41;100562.00;;;24.70
20736;BMP180;10528;52.124;5.196;2023-07-29T05:57:11;100565.00;;;24.80
20736;BMP180;10528;52.124;5.196;2023-07-29T05:59:38;100576.00;;;24.90
20736;BMP180;10528;52.124;5.196;2023-07-29T06:02:06;100565.00;;;25.00
20736;BMP180;10528;52.124;5.196;2023-07-29T06:04:33;100571.00;;;25.00
20736;BMP180;10528;52.124;5.196;2023-07-29T06:07:00;100570.00;;;25.10
20736;BMP180;10528;52.124;5.196;2023-07-29T06:09:27;100563.00;;;25.30
20736;BMP180;10528;52.124;5.196;2023-07-29T06:11:54;100561.00;;;25.70
20736;BMP180;10528;52.124;5.196;2023-07-29T06:14:21;100562.00;;;25.80
20736;BMP180;10528;52.124;5.196;2023-07-29T06:16:48;100567.00;;;26.00
20736;BMP180;10528;52.124;5.196;2023-07-29T06:19:16;100569.00;;;26.10
20736;BMP180;10528;52.124;5.196;2023-07-29T06:21:43;100573.00;;;26.30
20736;BMP180;10528;52.124;5.196;2023-07-29T06:24:10;100581.00;;;26.30
20736;BMP180;10528;52.124;5.196;2023-07-29T06:26:37;100592.00;;;26.30
20736;BMP180;10528;52.124;5.196;2023-07-29T06:29:04;100588.00;;;26.20
20736;BMP180;10528;52.124;5.196;2023-07-29T06:31:31;100588.00;;;26.10
20736;BMP180;10528;52.124;5.196;2023-07-29T06:33:59;100586.00;;;26.20
20736;BMP180;10528;52.124;5.196;2023-07-29T06:36:26;100576.00;;;26.10
20736;BMP180;10528;52.124;5.196;2023-07-29T06:38:53;100595.00;;;25.80
20736;BMP180;10528;52.124;5.196;2023-07-29T06:41:20;100593.00;;;26.00
20736;BMP180;10528;52.124;5.196;2023-07-29T06:43:47;100593.00;;;26.00
20736;BMP180;10528;52.124;5.196;2023-07-29T06:46:14;100593.00;;;26.00
20736;BMP180;10528;52.124;5.196;2023-07-29T06:48:41;100593.00;;;26.00
20736;BMP180;10528;52.124;5.196;2023-07-29T06:51:07;100596.00;;;26.00
20736;BMP180;10528;52.124;5.196;2023-07-29T06:53:35;100593.00;;;25.80
20736;BMP180;10528;52.124;5.196;2023-07-29T06:56:02;100590.00;;;25.90
20736;BMP180;10528;52.124;5.196;2023-07-29T06:58:29;100591.00;;;25.90
20736;BMP180;10528;52.124;5.196;2023-07-29T07:00:56;100596.00;;;26.00
20736;BMP180;10528;52.124;5.196;2023-07-29T07:03:23;100590.00;;;26.00
20736;BMP180;10528;52.124;5.196;2023-07-29T07:05:51;100593.00;;;25.90
20736;BMP180;10528;52.124;5.196;2023-07-29T07:08:18;100593.00;;;25.80
20736;BMP180;10528;52.124;5.196;2023-07-29T07:10:47;100601.00;;;25.80
20736;BMP180;10528;52.124;5.196;2023-07-29T07:13:14;100606.00;;;25.90
20736;BMP180;10528;52.124;5.196;2023-07-29T07:15:41;100611.00;;;25.60
20736;BMP180;10528;52.124;5.196;2023-07-29T07:18:08;100605.00;;;25.70
20736;BMP180;10528;52.124;5.196;2023-07-29T07:20:36;100592.00;;;25.40
20736;BMP180;10528;52.124;5.196;2023-07-29T07:23:03;100597.00;;;25.50
20736;BMP180;10528;52.124;5.196;2023-07-29T07:25:32;100597.00;;;25.40
20736;BMP180;10528;52.124;5.196;2023-07-29T07:27:59;100599.00;;;25.40
20736;BMP180;10528;52.124;5.196;2023-07-29T07:30:25;100603.00;;;25.60
20736;BMP180;10528;52.124;5.196;2023-07-29T07:32:52;100605.00;;;25.70
20736;BMP180;10528;52.124;5.196;2023-07-29T07:35:20;100607.00;;;25.70
20736;BMP180;10528;52.124;5.196;2023-07-29T07:37:46;100598.00;;;25.70
20736;BMP180;10528;52.124;5.196;2023-07-29T07:40:14;100600.00;;;25.90
20736;BMP180;10528;52.124;5.196;2023-07-29T07:42:41;100609.00;;;26.00
20736;BMP180;10528;52.124;5.196;2023-07-29T07:45:08;100601.00;;;26.00
20736;BMP180;10528;52.124;5.196;2023-07-29T07:47:35;100607.00;;;26.10
20736;BMP180;10528;52.124;5.196;2023-07-29T07:50:02;100613.00;;;26.10
20736;BMP180;10528;52.124;5.196;2023-07-29T07:52:29;100608.00;;;26.10
20736;BMP180;10528;52.124;5.196;2023-07-29T07:54:56;100604.00;;;26.30
20736;BMP180;10528;52.124;5.196;2023-07-29T07:57:23;100618.00;;;26.20
20736;BMP180;10528;52.124;5.196;2023-07-29T07:59:50;100618.00;;;26.50
20736;BMP180;10528;52.124;5.196;2023-07-29T08:02:19;100616.00;;;26.30
20736;BMP180;10528;52.124;5.196;2023-07-29T08:04:47;100622.00;;;26.40
20736;BMP180;10528;52.124;5.196;2023-07-29T08:07:14;100617.00;;;26.20
20736;BMP180;10528;52.124;5.196;2023-07-29T08:09:41;100615.00;;;26.30
20736;BMP180;10528;52.124;5.196;2023-07-29T08:12:08;100609.00;;;26.10
20736;BMP180;10528;52.124;5.196;2023-07-29T08:14:35;100608.00;;;26.50
20736;BMP180;10528;52.124;5.196;2023-07-29T08:17:01;100617.00;;;26.60
20736;BMP180;10528;52.124;5.196;2023-07-29T08:19:31;100622.00;;;26.60
20736;BMP180;10528;52.124;5.196;2023-07-29T08:21:58;100604.00;;;26.60
20736;BMP180;10528;52.124;5.196;2023-07-29T08:24:25;100618.00;;;26.70
20736;BMP180;10528;52.124;5.196;2023-07-29T08:26:52;100613.00;;;26.80
20736;BMP180;10528;52.124;5.196;2023-07-29T08:29:19;100624.00;;;26.70
20736;BMP180;10528;52.124;5.196;2023-07-29T08:31:46;100638.00;;;26.80
20736;BMP180;10528;52.124;5.196;2023-07-29T08:34:13;100617.00;;;26.70
20736;BMP180;10528;52.124;5.196;2023-07-29T08:36:40;100630.00;;;26.50
20736;BMP180;10528;52.124;5.196;2023-07-29T08:39:06;100626.00;;;26.60
20736;BMP180;10528;52.124;5.196;2023-07-29T08:41:51;100632.00;;;26.40
20736;BMP180;10528;52.124;5.196;2023-07-29T08:44:35;100620.00;;;26.40
20736;BMP180;10528;52.124;5.196;2023-07-29T08:47:03;100631.00;;;26.50
20736;BMP180;10528;52.124;5.196;2023-07-29T08:49:30;100626.00;;;26.20
20736;BMP180;10528;52.124;5.196;2023-07-29T08:51:58;100627.00;;;26.40
20736;BMP180;10528;52.124;5.196;2023-07-29T08:54:26;100634.00;;;26.30
20736;BMP180;10528;52.124;5.196;2023-07-29T08:56:53;100629.00;;;26.30
20736;BMP180;10528;52.124;5.196;2023-07-29T08:59:20;100631.00;;;26.40
20736;BMP180;10528;52.124;5.196;2023-07-29T09:01:48;100629.00;;;26.40
20736;BMP180;10528;52.124;5.196;2023-07-29T09:04:15;100615.00;;;26.60
20736;BMP180;10528;52.124;5.196;2023-07-29T09:06:44;100624.00;;;26.70
20736;BMP180;10528;52.124;5.196;2023-07-29T09:09:12;100618.00;;;26.60
20736;BMP180;10528;52.124;5.196;2023-07-29T09:11:39;100624.00;;;26.60
20736;BMP180;10528;52.124;5.196;2023-07-29T09:14:06;100629.00;;;26.70
20736;BMP180;10528;52.124;5.196;2023-07-29T09:16:33;100631.00;;;26.60
20736;BMP180;10528;52.124;5.196;2023-07-29T09:19:03;100627.00;;;26.90
20736;BMP180;10528;52.124;5.196;2023-07-29T09:21:30;100626.00;;;27.00
20736;BMP180;10528;52.124;5.196;2023-07-29T09:24:03;100639.00;;;26.80
20736;BMP180;10528;52.124;5.196;2023-07-29T09:26:34;100630.00;;;26.80
20736;BMP180;10528;52.124;5.196;2023-07-29T09:29:02;100637.00;;;26.50
20736;BMP180;10528;52.124;5.196;2023-07-29T09:31:30;100634.00;;;26.50
20736;BMP180;10528;52.124;5.196;2023-07-29T09:34:03;100629.00;;;26.70
20736;BMP180;10528;52.124;5.196;2023-07-29T09:36:32;100626.00;;;26.50
20736;BMP180;10528;52.124;5.196;2023-07-29T09:39:00;100638.00;;;26.40
20736;BMP180;10528;52.124;5.196;2023-07-29T09:41:29;100644.00;;;26.60
20736;BMP180;10528;52.124;5.196;2023-07-29T09:44:04;100635.00;;;26.40
20736;BMP180;10528;52.124;5.196;2023-07-29T09:46:38;100642.00;;;26.30
20736;BMP180;10528;52.124;5.196;2023-07-29T09:49:07;100640.00;;;26.50
20736;BMP180;10528;52.124;5.196;2023-07-29T09:51:38;100635.00;;;26.60
20736;BMP180;10528;52.124;5.196;2023-07-29T09:54:07;100640.00;;;26.70
20736;BMP180;10528;52.124;5.196;2023-07-29T09:56:41;100640.00;;;26.30
20736;BMP180;10528;52.124;5.196;2023-07-29T09:59:10;100637.00;;;26.50
20736;BMP180;10528;52.124;5.196;2023-07-29T10:01:39;100632.00;;;26.70
20736;BMP180;10528;52.124;5.196;2023-07-29T10:04:08;100630.00;;;26.90
20736;BMP180;10528;52.124;5.196;2023-07-29T10:06:41;100633.00;;;26.80
20736;BMP180;10528;52.124;5.196;2023-07-29T10:09:11;100626.00;;;26.80
20736;BMP180;10528;52.124;5.196;2023-07-29T10:11:41;100634.00;;;26.70
20736;BMP180;10528;52.124;5.196;2023-07-29T10:14:08;100636.00;;;26.70
20736;BMP180;10528;52.124;5.196;2023-07-29T10:16:40;100650.00;;;26.70
20736;BMP180;10528;52.124;5.196;2023-07-29T10:19:09;100646.00;;;26.70
20736;BMP180;10528;52.124;5.196;2023-07-29T10:21:39;100653.00;;;26.60
20736;BMP180;10528;52.124;5.196;2023-07-29T10:24:15;100655.00;;;26.60
20736;BMP180;10528;52.124;5.196;2023-07-29T10:26:46;100661.00;;;26.70
20736;BMP180;10528;52.124;5.196;2023-07-29T10:29:19;100655.00;;;26.60
20736;BMP180;10528;52.124;5.196;2023-07-29T10:31:53;100664.00;;;26.60
20736;BMP180;10528;52.124;5.196;2023-07-29T10:34:21;100664.00;;;26.60
20736;BMP180;10528;52.124;5.196;2023-07-29T10:36:50;100648.00;;;26.60
20736;BMP180;10528;52.124;5.196;2023-07-29T10:39:18;100645.00;;;26.60
20736;BMP180;10528;52.124;5.196;2023-07-29T10:42:01;100645.00;;;26.50
20736;BMP180;10528;52.124;5.196;2023-07-29T10:47:25;100646.00;;;26.50
20736;BMP180;10528;52.124;5.196;2023-07-29T10:49:59;100636.00;;;26.50
20736;BMP180;10528;52.124;5.196;2023-07-29T10:55:03;100651.00;;;26.50
20736;BMP180;10528;52.124;5.196;2023-07-29T10:57:39;100649.00;;;26.40
20736;BMP180;10528;52.124;5.196;2023-07-29T11:00:08;100655.00;;;26.50
20736;BMP180;10528;52.124;5.196;2023-07-29T11:02:37;100653.00;;;26.60
20736;BMP180;10528;52.124;5.196;2023-07-29T11:05:16;100658.00;;;26.60
20736;BMP180;10528;52.124;5.196;2023-07-29T11:07:49;100656.00;;;26.60
20736;BMP180;10528;52.124;5.196;2023-07-29T11:10:16;100655.00;;;26.60
20736;BMP180;10528;52.124;5.196;2023-07-29T11:12:49;100662.00;;;26.60
20736;BMP180;10528;52.124;5.196;2023-07-29T11:15:27;100657.00;;;26.60
20736;BMP180;10528;52.124;5.196;2023-07-29T11:18:00;100653.00;;;26.60
20736;BMP180;10528;52.124;5.196;2023-07-29T11:20:33;100663.00;;;26.50
20736;BMP180;10528;52.124;5.196;2023-07-29T11:23:02;100675.00;;;26.50
20736;BMP180;10528;52.124;5.196;2023-07-29T11:25:31;100676.00;;;26.50
20736;BMP180;10528;52.124;5.196;2023-07-29T11:28:00;100666.00;;;26.40
20736;BMP180;10528;52.124;5.196;2023-07-29T11:30:32;100674.00;;;26.40
20736;BMP180;10528;52.124;5.196;2023-07-29T11:33:00;100662.00;;;26.30
20736;BMP180;10528;52.124;5.196;2023-07-29T11:35:27;100656.00;;;26.30
20736;BMP180;10528;52.124;5.196;2023-07-29T11:37:55;100658.00;;;26.30
20736;BMP180;10528;52.124;5.196;2023-07-29T11:40:24;100648.00;;;26.30
20736;BMP180;10528;52.124;5.196;2023-07-29T11:42:53;100654.00;;;26.30
20736;BMP180;10528;52.124;5.196;2023-07-29T11:45:22;100648.00;;;26.40
20736;BMP180;10528;52.124;5.196;2023-07-29T11:47:58;100656.00;;;26.40
20736;BMP180;10528;52.124;5.196;2023-07-29T11:50:26;100655.00;;;26.50
20736;BMP180;10528;52.124;5.196;2023-07-29T11:52:53;100649.00;;;26.60
20736;BMP180;10528;52.124;5.196;2023-07-29T11:55:21;100649.00;;;26.70
20736;BMP180;10528;52.124;5.196;2023-07-29T11:57:52;100658.00;;;26.80
20736;BMP180;10528;52.124;5.196;2023-07-29T12:00:21;100659.00;;;26.80
20736;BMP180;10528;52.124;5.196;2023-07-29T12:02:49;100664.00;;;27.00
20736;BMP180;10528;52.124;5.196;2023-07-29T12:05:20;100655.00;;;27.00
20736;BMP180;10528;52.124;5.196;2023-07-29T12:07:48;100653.00;;;27.10
20736;BMP180;10528;52.124;5.196;2023-07-29T12:10:15;100647.00;;;27.20
20736;BMP180;10528;52.124;5.196;2023-07-29T12:12:49;100649.00;;;27.20
20736;BMP180;10528;52.124;5.196;2023-07-29T12:15:28;100652.00;;;27.20
20736;BMP180;10528;52.124;5.196;2023-07-29T12:17:59;100645.00;;;27.20
20736;BMP180;10528;52.124;5.196;2023-07-29T12:20:29;100646.00;;;27.20
20736;BMP180;10528;52.124;5.196;2023-07-29T12:22:59;100647.00;;;27.20
20736;BMP180;10528;52.124;5.196;2023-07-29T12:25:29;100643.00;;;27.20
20736;BMP180;10528;52.124;5.196;2023-07-29T12:28:05;100642.00;;;27.10
20736;BMP180;10528;52.124;5.196;2023-07-29T12:30:32;100638.00;;;27.00
20736;BMP180;10528;52.124;5.196;2023-07-29T12:32:59;100636.00;;;27.10
20736;BMP180;10528;52.124;5.196;2023-07-29T12:35:37;100643.00;;;27.10
20736;BMP180;10528;52.124;5.196;2023-07-29T12:38:05;100644.00;;;27.20
20736;BMP180;10528;52.124;5.196;2023-07-29T12:40:32;100637.00;;;27.30
20736;BMP180;10528;52.124;5.196;2023-07-29T12:42:59;100640.00;;;27.40
20736;BMP180;10528;52.124;5.196;2023-07-29T12:45:26;100642.00;;;27.40
20736;BMP180;10528;52.124;5.196;2023-07-29T12:47:56;100642.00;;;27.50
20736;BMP180;10528;52.124;5.196;2023-07-29T12:50:23;100631.00;;;27.50
20736;BMP180;10528;52.124;5.196;2023-07-29T12:52:50;100635.00;;;27.60
20736;BMP180;10528;52.124;5.196;2023-07-29T12:55:17;100641.00;;;27.60
20736;BMP180;10528;52.124;5.196;2023-07-29T12:57:50;100629.00;;;27.60
20736;BMP180;10528;52.124;5.196;2023-07-29T13:00:18;100641.00;;;27.60
20736;BMP180;10528;52.124;5.196;2023-07-29T13:02:45;100635.00;;;27.70
20736;BMP180;10528;52.124;5.196;2023-07-29T13:05:12;100641.00;;;27.70
20736;BMP180;10528;52.124;5.196;2023-07-29T13:07:40;100639.00;;;27.70
20736;BMP180;10528;52.124;5.196;2023-07-29T13:10:09;100645.00;;;27.60
20736;BMP180;10528;52.124;5.196;2023-07-29T13:12:36;100639.00;;;27.60
20736;BMP180;10528;52.124;5.196;2023-07-29T13:15:04;100634.00;;;27.60
20736;BMP180;10528;52.124;5.196;2023-07-29T13:17:32;100646.00;;;27.60
20736;BMP180;10528;52.124;5.196;2023-07-29T13:19:59;100633.00;;;27.60
20736;BMP180;10528;52.124;5.196;2023-07-29T13:22:26;100643.00;;;27.70
20736;BMP180;10528;52.124;5.196;2023-07-29T13:24:53;100635.00;;;27.70
20736;BMP180;10528;52.124;5.196;2023-07-29T13:27:20;100637.00;;;27.80
20736;BMP180;10528;52.124;5.196;2023-07-29T13:29:47;100640.00;;;27.80
20736;BMP180;10528;52.124;5.196;2023-07-29T13:32:14;100641.00;;;27.80
20736;BMP180;10528;52.124;5.196;2023-07-29T13:34:41;100642.00;;;27.90
20736;BMP180;10528;52.124;5.196;2023-07-29T13:37:08;100643.00;;;27.80
20736;BMP180;10528;52.124;5.196;2023-07-29T13:39:35;100634.00;;;27.80
20736;BMP180;10528;52.124;5.196;2023-07-29T13:42:01;100631.00;;;27.80
20736;BMP180;10528;52.124;5.196;2023-07-29T13:44:29;100632.00;;;27.90
20736;BMP180;10528;52.124;5.196;2023-07-29T13:46:55;100626.00;;;27.90
20736;BMP180;10528;52.124;5.196;2023-07-29T13:49:22;100639.00;;;27.90
20736;BMP180;10528;52.124;5.196;2023-07-29T13:51:49;100639.00;;;27.90
20736;BMP180;10528;52.124;5.196;2023-07-29T13:54:17;100648.00;;;27.90
20736;BMP180;10528;52.124;5.196;2023-07-29T13:56:44;100641.00;;;27.90
20736;BMP180;10528;52.124;5.196;2023-07-29T13:59:10;100649.00;;;28.00
20736;BMP180;10528;52.124;5.196;2023-07-29T14:01:37;100641.00;;;28.00
20736;BMP180;10528;52.124;5.196;2023-07-29T14:04:04;100635.00;;;27.90
20736;BMP180;10528;52.124;5.196;2023-07-29T14:06:32;100632.00;;;27.90
20736;BMP180;10528;52.124;5.196;2023-07-29T14:09:11;100634.00;;;27.90
20736;BMP180;10528;52.124;5.196;2023-07-29T14:11:38;100628.00;;;27.70
20736;BMP180;10528;52.124;5.196;2023-07-29T14:14:07;100638.00;;;27.90